Time;durP1;ratioP1;P1;durP2;ratioP2;P2;SDS_P1;SDS_P2;PMS_P1;PMS_P2;Temp;Humidity;BMP_temperature;BMP_pressure;BME280_temperature;BME280_humidity;BME280_pressure;Samples;Min_cycle;Max_cycle;Signal;HPM_P1;HPM_P2
2022/03/24 00:01:30;;;;;;;;;45.50;37.25;;;;;14.81;36.33;102514.84;4977581;28;45488;-83
2022/03/24 00:03:55;;;;;;;;;49.75;42.50;;;;;14.77;36.30;102508.72;4977580;28;45523;-83
2022/03/24 00:06:21;;;;;;;;;47.75;40.25;;;;;14.70;36.36;102492.84;4977955;28;45511;-83
2022/03/24 00:08:46;;;;;;;;;46.25;37.25;;;;;14.78;36.59;102505.09;5045408;28;45584;-83
2022/03/24 00:11:11;;;;;;;;;51.25;42.00;;;;;14.76;36.57;102511.44;4977598;28;45830;-83
2022/03/24 00:13:37;;;;;;;;;44.00;38.75;;;;;14.71;36.56;102505.34;4963319;28;45607;-83
2022/03/24 00:16:03;;;;;;;;;45.00;37.25;;;;;14.74;36.57;102507.91;4958079;28;45585;-83
2022/03/24 00:18:31;;;;;;;;;45.25;38.75;;;;;14.68;36.31;102509.00;4958701;28;45231;-83
2022/03/24 00:20:57;;;;;;;;;42.50;37.25;;;;;14.65;36.35;102492.13;4957525;28;45931;-83
2022/03/24 00:23:22;;;;;;;;;36.50;31.50;;;;;14.68;36.50;102500.97;4958283;28;45393;-83
2022/03/24 00:25:49;;;;;;;;;46.00;36.50;;;;;14.61;36.08;102487.75;4958204;28;45377;-84
2022/03/24 00:28:14;;;;;;;;;37.75;32.25;;;;;14.64;36.36;102495.75;4958410;28;45375;-84
2022/03/24 00:30:39;;;;;;;;;44.75;37.50;;;;;14.61;36.25;102493.13;4958041;28;45399;-83
2022/03/24 00:33:05;;;;;;;;;45.50;37.00;;;;;14.43;36.21;102470.44;4957607;28;45386;-83
2022/03/24 00:35:31;;;;;;;;;48.00;36.25;;;;;14.53;36.63;102490.66;4958124;28;45387;-83
2022/03/24 00:37:57;;;;;;;;;48.50;38.25;;;;;14.41;36.51;102485.72;4972612;28;45491;-83
2022/03/24 00:40:22;;;;;;;;;49.00;37.75;;;;;14.41;36.66;102478.53;4977034;28;45778;-83
2022/03/24 00:42:47;;;;;;;;;48.25;39.25;;;;;14.42;36.47;102493.72;4977643;28;45378;-83
2022/03/24 00:45:13;;;;;;;;;46.50;38.75;;;;;14.18;36.69;102455.13;4968894;28;45436;-83
2022/03/24 00:47:40;;;;;;;;;41.25;35.00;;;;;14.32;36.45;102476.13;4958283;28;45406;-83
2022/03/24 00:50:07;;;;;;;;;47.50;38.25;;;;;14.20;36.94;102466.66;4957645;28;46257;-83
2022/03/24 00:52:33;;;;;;;;;43.00;36.00;;;;;14.14;36.73;102459.72;4957510;28;45451;-83
2022/03/24 00:54:58;;;;;;;;;45.25;37.25;;;;;14.23;36.65;102481.78;4957595;28;45312;-84
2022/03/24 00:57:24;;;;;;;;;45.75;37.50;;;;;13.98;36.91;102450.38;4958016;28;45478;-84
2022/03/24 00:59:49;;;;;;;;;46.25;37.50;;;;;13.99;37.06;102454.81;4957642;28;45442;-83
2022/03/24 01:02:14;;;;;;;;;43.75;38.25;;;;;14.04;37.22;102471.63;4966252;28;45335;-83
2022/03/24 01:04:41;;;;;;;;;49.50;39.50;;;;;14.08;37.08;102483.16;4996510;28;45402;-83
2022/03/24 01:07:07;;;;;;;;;52.25;40.50;;;;;13.91;37.16;102465.78;4961084;28;45529;-83
2022/03/24 01:09:32;;;;;;;;;48.75;40.25;;;;;13.89;37.22;102472.09;4957258;28;45393;-83
2022/03/24 01:11:57;;;;;;;;;42.75;37.00;;;;;13.97;37.30;102482.59;4956181;28;45395;-83
2022/03/24 01:14:23;;;;;;;;;46.75;38.75;;;;;13.62;37.30;102434.47;4964249;28;45386;-83
2022/03/24 01:16:51;;;;;;;;;42.00;37.50;;;;;13.89;37.70;102480.16;4978377;28;45383;-83
2022/03/24 01:19:16;;;;;;;;;51.50;40.75;;;;;13.88;37.26;102483.72;4996204;28;45331;-83
2022/03/24 01:21:42;;;;;;;;;50.00;40.50;;;;;13.77;37.77;102469.78;4981314;27;45970;-83
2022/03/24 01:24:08;;;;;;;;;50.00;39.75;;;;;13.61;37.44;102438.06;4967463;28;45360;-83
2022/03/24 01:26:34;;;;;;;;;47.75;38.25;;;;;13.64;37.35;102450.50;4957808;28;45350;-83
2022/03/24 01:29:00;;;;;;;;;53.00;41.25;;;;;13.72;37.49;102470.81;4956959;28;45427;-83
2022/03/24 01:31:25;;;;;;;;;42.25;37.50;;;;;13.50;37.95;102437.50;4957214;28;45396;-83
2022/03/24 01:33:50;;;;;;;;;43.50;38.50;;;;;13.72;37.70;102477.97;4957370;28;45359;-83
2022/03/24 01:36:16;;;;;;;;;54.50;44.00;;;;;13.68;37.78;102479.84;4957064;28;45383;-83
2022/03/24 01:38:42;;;;;;;;;45.00;37.50;;;;;13.52;37.80;102454.41;4939988;28;47207;-82
2022/03/24 01:41:08;;;;;;;;;47.25;37.25;;;;;13.62;37.91;102469.28;4988885;28;45507;-83
2022/03/24 01:43:35;;;;;;;;;43.75;37.50;;;;;13.59;38.20;102471.19;4984775;28;45406;-83
2022/03/24 01:46:00;;;;;;;;;48.75;40.75;;;;;13.42;38.20;102437.72;4966933;28;45353;-83
2022/03/24 01:48:26;;;;;;;;;48.75;39.25;;;;;13.55;38.35;102466.84;4976188;28;45344;-82
2022/03/24 01:50:52;;;;;;;;;53.00;40.50;;;;;13.40;38.54;102447.59;4976633;28;45476;-83
2022/03/24 01:53:18;;;;;;;;;46.50;38.75;;;;;13.46;38.84;102467.97;4975824;28;45545;-83
2022/03/24 01:55:45;;;;;;;;;48.25;38.75;;;;;13.43;38.57;102460.91;4976995;28;45465;-83
2022/03/24 01:58:12;;;;;;;;;44.00;38.50;;;;;13.16;38.74;102424.13;4976280;28;46138;-82
2022/03/24 02:00:38;;;;;;;;;49.75;38.50;;;;;13.26;39.03;102439.06;4976421;28;45457;-83
2022/03/24 02:03:04;;;;;;;;;52.25;40.50;;;;;13.33;38.82;102455.88;5025482;28;45326;-82
2022/03/24 02:05:34;;;;;;;;;42.50;37.75;;;;;13.32;38.93;102457.63;5009752;28;45446;-83
2022/03/24 02:08:06;;;;;;;;;50.25;42.50;;;;;13.20;38.61;102433.84;4976351;28;45446;-83
2022/03/24 02:10:34;;;;;;;;;53.00;40.75;;;;;13.33;39.06;102463.91;4975368;28;45326;-82
2022/03/24 02:13:00;;;;;;;;;42.50;36.00;;;;;13.12;39.23;102419.81;4970905;28;45420;-83
2022/03/24 02:15:26;;;;;;;;;51.25;40.50;;;;;13.20;39.15;102445.44;4967022;28;45323;-82
2022/03/24 02:17:52;;;;;;;;;53.00;42.25;;;;;13.13;39.45;102443.84;4976243;28;45315;-82
2022/03/24 02:20:19;;;;;;;;;49.25;38.75;;;;;13.21;39.38;102457.06;4994083;27;45291;-82
2022/03/24 02:22:45;;;;;;;;;45.75;39.25;;;;;13.10;39.18;102446.63;4996036;27;45385;-83
2022/03/24 02:25:11;;;;;;;;;46.50;37.75;;;;;13.02;39.72;102430.78;4996014;28;45375;-83
2022/03/24 02:27:37;;;;;;;;;46.50;38.50;;;;;13.16;39.31;102458.94;4995635;27;46195;-83
2022/03/24 02:30:04;;;;;;;;;51.25;40.50;;;;;13.07;39.54;102446.72;4978240;28;45303;-82
2022/03/24 02:32:30;;;;;;;;;51.50;41.50;;;;;13.03;40.20;102447.69;4995206;27;45495;-83
2022/03/24 02:34:55;;;;;;;;;51.25;41.75;;;;;13.04;39.73;102452.13;4995889;28;45395;-83
2022/03/24 02:37:23;;;;;;;;;42.50;39.00;;;;;13.04;40.12;102446.78;4985215;28;46545;-82
2022/03/24 02:39:58;;;;;;;;;46.25;38.25;;;;;13.00;40.04;102447.78;4974173;28;46039;-83
2022/03/24 02:42:27;;;;;;;;;47.25;37.50;;;;;13.00;40.23;102453.16;4969042;28;45410;-82
2022/03/24 02:44:55;;;;;;;;;48.25;39.50;;;;;12.80;40.46;102427.75;4956892;28;45447;-83
2022/03/24 02:47:21;;;;;;;;;43.25;38.25;;;;;12.79;40.24;102430.50;4955918;28;46078;-82
2022/03/24 02:49:48;;;;;;;;;50.00;39.50;;;;;12.75;40.61;102426.13;4956294;28;45508;-82
2022/03/24 02:52:14;;;;;;;;;46.25;38.75;;;;;12.70;40.38;102417.34;4956113;28;45447;-82
2022/03/24 02:54:40;;;;;;;;;48.00;38.25;;;;;12.67;40.65;102412.97;4956685;28;45292;-82
2022/03/24 02:57:06;;;;;;;;;48.00;39.50;;;;;12.75;40.44;102431.50;4956101;28;46269;-83
2022/03/24 02:59:31;;;;;;;;;47.75;38.75;;;;;12.72;40.36;102427.09;4956020;28;45263;-82
2022/03/24 03:02:05;;;;;;;;;50.00;40.25;;;;;12.73;40.48;102427.97;4961741;28;45654;-82
2022/03/24 03:04:32;;;;;;;;;44.75;38.75;;;;;12.69;40.26;102419.16;4995380;28;45670;-82
2022/03/24 03:06:58;;;;;;;;;46.25;35.75;;;;;12.60;40.71;102411.38;4995383;28;45407;-82
2022/03/24 03:09:24;;;;;;;;;37.50;31.25;;;;;12.82;40.79;102457.16;4993630;28;45675;-82
2022/03/24 03:11:51;;;;;;;;;41.75;35.25;;;;;12.78;40.80;102450.13;4993613;28;45547;-82
2022/03/24 03:14:18;;;;;;;;;44.75;36.25;;;;;12.58;41.06;102422.09;4995206;27;45302;-82
2022/03/24 03:16:45;;;;;;;;;46.50;36.75;;;;;12.48;41.13;102408.97;4995043;28;45719;-82
2022/03/24 03:19:12;;;;;;;;;47.75;38.00;;;;;12.62;41.37;102428.25;4977284;28;45196;-82
2022/03/24 03:21:41;;;;;;;;;46.75;37.25;;;;;12.49;41.12;102418.78;4992938;28;45370;-83
2022/03/24 03:24:08;;;;;;;;;45.50;37.00;;;;;12.51;41.49;102424.97;4974796;28;45331;-82
2022/03/24 03:26:34;;;;;;;;;41.25;34.50;;;;;12.61;41.31;102448.75;4990127;28;47387;-82
2022/03/24 03:28:59;;;;;;;;;47.25;38.25;;;;;12.57;41.73;102440.84;4975261;28;45302;-82
2022/03/24 03:31:26;;;;;;;;;44.50;37.00;;;;;12.55;41.52;102459.63;4964283;28;45312;-82
2022/03/24 03:33:51;;;;;;;;;42.75;32.50;;;;;12.32;41.97;102425.41;4954808;28;45551;-82
2022/03/24 03:36:18;;;;;;;;;42.25;34.25;;;;;12.37;41.75;102441.34;4988579;28;46067;-82
2022/03/24 03:38:45;;;;;;;;;40.50;34.25;;;;;12.44;42.20;102453.66;4994768;28;45421;-82
2022/03/24 03:41:11;;;;;;;;;47.00;38.00;;;;;12.18;42.07;102414.19;4988285;28;45364;-82
2022/03/24 03:43:37;;;;;;;;;43.25;35.75;;;;;12.16;42.18;102416.88;4994901;27;45391;-82
2022/03/24 03:46:02;;;;;;;;;42.75;34.75;;;;;12.09;42.21;102403.69;4994755;28;46310;-82
2022/03/24 03:48:29;;;;;;;;;45.75;36.25;;;;;12.34;42.32;102438.72;4976494;28;45979;-82
2022/03/24 03:50:55;;;;;;;;;43.75;35.50;;;;;12.32;42.48;102453.94;4994727;28;45337;-83
2022/03/24 03:53:21;;;;;;;;;40.75;35.00;;;;;12.13;42.44;102422.31;4993963;28;45325;-82
2022/03/24 03:55:48;;;;;;;;;38.00;33.25;;;;;12.31;42.33;102457.53;4989906;27;45255;-83
2022/03/24 03:58:13;;;;;;;;;45.50;35.00;;;;;12.11;42.61;102428.59;4974704;28;45508;-82
2022/03/24 04:00:53;;;;;;;;;48.75;39.50;;;;;12.28;42.66;102458.47;4964952;28;45400;-82
2022/03/24 04:03:26;;;;;;;;;47.50;37.75;;;;;12.25;42.30;102454.09;4983121;28;45476;-82
2022/03/24 04:05:53;;;;;;;;;45.00;38.00;;;;;12.25;42.60;102451.41;4994279;28;45428;-83
2022/03/24 04:08:19;;;;;;;;;44.25;35.75;;;;;12.21;42.79;102455.06;4994409;28;45255;-82
2022/03/24 04:10:44;;;;;;;;;45.75;37.75;;;;;12.09;42.69;102443.78;4993647;28;45253;-83
2022/03/24 04:13:10;;;;;;;;;46.50;37.75;;;;;12.07;42.66;102445.63;4978337;28;45478;-82
2022/03/24 04:15:36;;;;;;;;;44.25;37.50;;;;;12.05;42.50;102440.28;4972575;28;48197;-83
2022/03/24 04:18:01;;;;;;;;;44.50;35.25;;;;;12.03;42.84;102444.78;4979405;28;45654;-83
2022/03/24 04:20:27;;;;;;;;;46.00;37.75;;;;;11.97;42.40;102439.59;4990299;28;45474;-82
2022/03/24 04:22:54;;;;;;;;;46.75;35.50;;;;;12.07;42.41;102457.19;4974721;28;45354;-83
2022/03/24 04:25:21;;;;;;;;;46.00;36.25;;;;;12.06;42.70;102450.09;4974377;28;47370;-83
2022/03/24 04:27:49;;;;;;;;;46.75;37.00;;;;;11.98;42.61;102442.22;4973974;28;45391;-82
2022/03/24 04:30:17;;;;;;;;;46.50;36.25;;;;;12.00;42.59;102448.41;4974212;28;45377;-82
2022/03/24 04:32:43;;;;;;;;;41.50;35.25;;;;;12.00;42.73;102452.88;4974354;28;45397;-82
2022/03/24 04:35:09;;;;;;;;;49.50;37.00;;;;;11.78;42.61;102413.25;4969899;28;46429;-82
2022/03/24 04:37:35;;;;;;;;;39.75;34.75;;;;;11.78;43.00;102418.59;4957839;28;45455;-82
2022/03/24 04:40:03;;;;;;;;;44.00;36.75;;;;;11.95;42.99;102444.97;4957999;28;45334;-82
2022/03/24 04:42:28;;;;;;;;;43.75;36.00;;;;;11.80;43.07;102427.47;4958113;28;45417;-82
2022/03/24 04:44:54;;;;;;;;;45.75;36.25;;;;;11.87;43.32;102443.34;4971316;28;48135;-82
2022/03/24 04:47:19;;;;;;;;;45.00;36.75;;;;;11.76;43.27;102430.22;4977224;28;45425;-82
2022/03/24 04:49:45;;;;;;;;;38.25;32.00;;;;;11.82;43.34;102447.00;4977155;28;45357;-82
2022/03/24 04:52:10;;;;;;;;;48.25;38.50;;;;;11.32;42.95;102363.47;4977677;28;45409;-82
2022/03/24 04:54:36;;;;;;;;;47.00;36.75;;;;;11.57;43.60;102419.06;4977122;28;46090;-82
2022/03/24 04:57:01;;;;;;;;;49.00;37.50;;;;;11.77;43.47;102453.34;4965025;28;45386;-82
2022/03/24 04:59:27;;;;;;;;;48.00;36.25;;;;;11.48;43.57;102405.91;4957220;28;45358;-82
2022/03/24 05:01:53;;;;;;;;;45.00;38.25;;;;;11.45;43.71;102401.50;4959277;28;45748;-82
2022/03/24 05:04:18;;;;;;;;;42.25;33.25;;;;;11.70;43.68;102443.69;4976805;28;45751;-82
2022/03/24 05:06:44;;;;;;;;;49.75;38.25;;;;;11.54;43.92;102421.78;4976931;28;45541;-82
2022/03/24 05:09:09;;;;;;;;;50.50;38.75;;;;;11.64;44.05;102447.41;4977423;28;45486;-82
2022/03/24 05:11:34;;;;;;;;;49.75;38.50;;;;;11.51;44.32;102433.41;4977063;28;45882;-82
2022/03/24 05:14:01;;;;;;;;;47.50;37.00;;;;;11.35;44.21;102410.59;4989100;28;45937;-82
2022/03/24 05:16:27;;;;;;;;;48.25;37.00;;;;;11.45;44.23;102435.31;4980834;28;45520;-82
2022/03/24 05:18:53;;;;;;;;;45.00;36.00;;;;;11.38;44.27;102421.22;4976677;28;45588;-83
2022/03/24 05:21:19;;;;;;;;;49.50;40.00;;;;;11.53;44.33;102452.94;4977205;28;45301;-82
2022/03/24 05:23:44;;;;;;;;;44.75;38.00;;;;;11.31;44.69;102417.78;4976578;28;46093;-82
2022/03/24 05:26:10;;;;;;;;;45.00;35.75;;;;;11.51;44.61;102453.88;4975690;28;45499;-82
2022/03/24 05:28:35;;;;;;;;;41.50;35.00;;;;;11.32;44.36;102429.34;4976962;28;45559;-82
2022/03/24 05:31:00;;;;;;;;;50.50;39.00;;;;;11.48;44.40;102461.97;4992355;27;45586;-82
2022/03/24 05:33:26;;;;;;;;;47.75;39.00;;;;;11.33;44.68;102437.34;4976685;28;46305;-83
2022/03/24 05:35:51;;;;;;;;;49.25;38.75;;;;;11.27;44.53;102431.22;4983157;27;46740;-82
2022/03/24 05:38:17;;;;;;;;;48.25;37.25;;;;;11.34;44.66;102443.53;4959145;28;45377;-82
2022/03/24 05:40:43;;;;;;;;;47.00;39.25;;;;;11.41;44.68;102450.53;4989050;28;45537;-82
2022/03/24 05:43:08;;;;;;;;;52.25;36.00;;;;;11.31;45.28;102441.81;4979239;28;46156;-82
2022/03/24 05:45:34;;;;;;;;;47.50;36.25;;;;;11.37;45.12;102456.81;4957064;28;45450;-82
2022/03/24 05:47:59;;;;;;;;;40.00;33.00;;;;;11.37;44.86;102455.03;4955968;28;45534;-83
2022/03/24 05:50:25;;;;;;;;;44.25;35.00;;;;;11.31;45.24;102463.19;4980584;28;45365;-83
2022/03/24 05:52:51;;;;;;;;;45.50;36.25;;;;;11.35;45.41;102462.19;4995524;27;45977;-83
2022/03/24 05:55:17;;;;;;;;;46.25;36.00;;;;;11.12;45.19;102422.63;4993693;28;45488;-83
2022/03/24 05:57:45;;;;;;;;;43.75;36.50;;;;;11.20;45.22;102446.47;4976651;28;45377;-83
2022/03/24 06:00:12;;;;;;;;;39.50;33.50;;;;;11.30;45.05;102464.06;4971735;28;45544;-82
2022/03/24 06:02:37;;;;;;;;;46.00;39.50;;;;;11.32;45.71;102469.38;4964899;28;45399;-82
2022/03/24 06:05:05;;;;;;;;;47.25;39.25;;;;;11.30;45.60;102465.88;4976014;28;45513;-82
2022/03/24 06:07:30;;;;;;;;;47.00;36.25;;;;;11.37;45.40;102478.19;4976445;28;45461;-82
2022/03/24 06:09:57;;;;;;;;;51.00;41.25;;;;;11.26;45.35;102450.81;5050193;28;46378;-82
2022/03/24 06:12:24;;;;;;;;;48.25;39.25;;;;;11.39;45.63;102466.56;4973148;28;46347;-83
2022/03/24 06:14:51;;;;;;;;;45.25;38.50;;;;;11.26;45.59;102438.38;4972317;28;45324;-82
2022/03/24 06:17:18;;;;;;;;;36.00;33.00;;;;;11.32;45.30;102445.38;4967599;28;45375;-82
2022/03/24 06:19:45;;;;;;;;;49.75;39.75;;;;;11.29;45.21;102440.09;4979535;28;45284;-82
2022/03/24 06:22:12;;;;;;;;;49.00;41.00;;;;;11.29;45.54;102448.97;4975542;28;46504;-82
2022/03/24 06:24:37;;;;;;;;;48.50;38.00;;;;;11.35;45.74;102448.84;4978828;28;45391;-82
2022/03/24 06:27:03;;;;;;;;;45.25;38.25;;;;;11.48;45.24;102465.50;4975455;28;45527;-82
2022/03/24 06:29:28;;;;;;;;;51.00;41.00;;;;;11.47;45.64;102457.53;4965264;28;45366;-86
2022/03/24 06:31:54;;;;;;;;;49.75;38.75;;;;;11.52;45.81;102471.66;4987523;28;45574;-85
2022/03/24 06:34:19;;;;;;;;;50.25;39.50;;;;;11.55;46.04;102466.28;5035147;28;45458;-84
2022/03/24 06:36:44;;;;;;;;;51.25;41.75;;;;;11.04;45.69;102378.31;4957028;28;45433;-86
2022/03/24 06:39:10;;;;;;;;;49.00;39.75;;;;;11.64;45.88;102481.25;4956534;28;46179;-83
2022/03/24 06:41:36;;;;;;;;;53.00;41.75;;;;;11.26;45.97;102414.34;4968417;28;45636;-89
2022/03/24 06:44:05;;;;;;;;;54.50;42.00;;;;;11.69;45.99;102460.66;4941540;28;45543;-81
2022/03/24 06:46:32;;;;;;;;;47.50;39.75;;;;;11.66;45.66;102439.31;4983805;28;45410;-83
2022/03/24 06:48:57;;;;;;;;;51.25;37.00;;;;;11.93;45.76;102476.19;4975148;28;45854;-82
2022/03/24 06:51:23;;;;;;;;;55.75;44.00;;;;;11.99;45.56;102477.84;4989863;28;47100;-81
2022/03/24 06:53:49;;;;;;;;;55.50;44.00;;;;;12.03;45.89;102471.50;4980310;28;46599;-82
2022/03/24 06:56:14;;;;;;;;;55.50;44.50;;;;;12.12;45.44;102467.75;5024359;28;45416;-82
2022/03/24 06:58:40;;;;;;;;;52.50;42.50;;;;;12.08;45.26;102460.72;5032600;28;45416;-82
2022/03/24 07:01:06;;;;;;;;;53.25;44.25;;;;;12.29;44.96;102486.09;4994250;28;52319;-82
2022/03/24 07:03:31;;;;;;;;;60.50;45.75;;;;;12.25;44.74;102461.22;4988599;28;45409;-82
2022/03/24 07:05:56;;;;;;;;;52.25;41.50;;;;;12.43;44.28;102479.53;4994470;28;45369;-81
2022/03/24 07:08:25;;;;;;;;;51.00;41.50;;;;;12.37;43.88;102470.75;4993740;28;45191;-81
2022/03/24 07:10:51;;;;;;;;;47.75;39.75;;;;;12.60;42.77;102486.25;4994999;28;45409;-79
2022/03/24 07:13:17;;;;;;;;;47.75;37.50;;;;;12.70;42.72;102485.13;4994469;28;45508;-80
2022/03/24 07:15:42;;;;;;;;;44.50;36.25;;;;;12.82;42.94;102482.13;4994924;28;45382;-79
2022/03/24 07:18:10;;;;;;;;;39.50;34.50;;;;;12.92;41.35;102485.44;4995250;28;45640;-80
2022/03/24 07:20:36;;;;;;;;;42.00;37.00;;;;;12.82;41.38;102454.50;4994593;28;46638;-81
2022/03/24 07:23:03;;;;;;;;;44.75;36.50;;;;;13.07;40.56;102486.88;4994108;28;45480;-80
2022/03/24 07:25:30;;;;;;;;;46.25;37.00;;;;;13.17;39.61;102484.81;4987265;28;45455;-80
2022/03/24 07:27:56;;;;;;;;;36.50;31.50;;;;;13.33;39.43;102496.03;4955682;28;45435;-79
2022/03/24 07:30:22;;;;;;;;;41.00;34.50;;;;;13.05;39.47;102430.69;4956340;28;45496;-82
2022/03/24 07:32:48;;;;;;;;;37.75;34.75;;;;;13.43;39.06;102470.75;4984536;28;45530;-83
2022/03/24 07:35:14;;;;;;;;;42.75;38.00;;;;;13.56;38.48;102482.00;4994689;27;45398;-81
2022/03/24 07:37:40;;;;;;;;;34.25;29.75;;;;;13.56;38.12;102461.44;4995448;27;45398;-81
2022/03/24 07:40:08;;;;;;;;;40.25;35.50;;;;;13.83;37.87;102486.53;4994068;27;46545;-82
2022/03/24 07:42:34;;;;;;;;;44.25;35.00;;;;;13.83;38.34;102475.81;4974839;28;45277;-83
2022/03/24 07:45:00;;;;;;;;;35.25;31.00;;;;;13.86;37.06;102466.81;4974357;28;45435;-82
2022/03/24 07:47:26;;;;;;;;;36.00;31.25;;;;;14.02;37.10;102492.25;4974595;28;45504;-81
2022/03/24 07:49:52;;;;;;;;;30.25;30.25;;;;;14.21;37.02;102495.28;4974886;28;46018;-80
2022/03/24 07:52:17;;;;;;;;;37.75;30.50;;;;;13.96;36.34;102444.19;4974124;28;45608;-85
2022/03/24 07:55:01;;;;;;;;;32.00;31.00;;;;;14.37;36.20;102490.28;4974473;28;45343;-83
2022/03/24 07:57:28;;;;;;;;;32.00;30.33;;;;;14.20;35.89;102450.59;4994204;27;45397;-82
2022/03/24 07:59:53;;;;;;;;;44.75;34.75;;;;;14.20;35.94;102439.84;4993662;28;46184;-81
2022/03/24 08:02:18;;;;;;;;;40.00;30.67;;;;;14.54;35.75;102493.34;4987908;28;45525;-82
2022/03/24 08:04:45;;;;;;;;;41.67;34.00;;;;;14.57;35.51;102487.00;4974923;28;45473;-87
2022/03/24 08:07:10;;;;;;;;;35.25;32.50;;;;;14.68;35.48;102492.00;4975140;28;45386;-84
2022/03/24 08:09:35;;;;;;;;;35.50;33.00;;;;;14.01;35.65;102364.50;4974781;28;45473;-86
2022/03/24 08:12:01;;;;;;;;;41.25;33.25;;;;;14.72;35.17;102472.19;4977595;28;45522;-87
2022/03/24 08:14:27;;;;;;;;;41.50;34.00;;;;;14.74;34.90;102457.78;4975828;28;45431;-84
2022/03/24 08:16:53;;;;;;;;;34.50;29.75;;;;;15.09;35.04;102498.66;4978130;28;45315;-84
2022/03/24 08:19:18;;;;;;;;;36.75;30.25;;;;;15.22;35.72;102495.56;4975503;28;47514;-84
2022/03/24 08:21:43;;;;;;;;;32.00;30.00;;;;;15.35;36.15;102500.44;4977867;28;45470;-85
2022/03/24 08:24:09;;;;;;;;;33.50;30.50;;;;;15.38;35.05;102476.16;4976365;28;45453;-87
2022/03/24 08:26:35;;;;;;;;;31.25;27.00;;;;;15.68;34.86;102501.97;4960362;28;45424;-87
2022/03/24 08:29:01;;;;;;;;;38.00;34.00;;;;;15.57;34.04;102449.50;4959887;28;47594;-87
2022/03/24 08:31:26;;;;;;;;;37.75;31.50;;;;;16.24;33.63;102477.44;4976963;28;45537;-87
2022/03/24 08:33:52;;;;;;;;;44.25;34.00;;;;;16.64;32.64;102451.56;4960093;28;45346;-90
2022/03/24 08:36:17;;;;;;;;;39.75;33.00;;;;;16.94;31.87;102432.41;4977792;28;45644;-86
2022/03/24 08:38:42;;;;;;;;;38.25;34.00;;;;;17.10;31.59;102430.78;4977398;28;46444;-87
2022/03/24 08:41:08;;;;;;;;;41.75;33.00;;;;;17.88;30.89;102493.78;4977611;28;45299;-86
2022/03/24 08:43:33;;;;;;;;;48.75;35.50;;;;;17.92;30.50;102441.47;4977258;28;45432;-86
2022/03/24 08:45:59;;;;;;;;;36.67;32.33;;;;;18.17;30.27;102478.03;4977768;28;45493;-87
2022/03/24 08:48:24;;;;;;;;;38.50;34.00;;;;;18.27;30.28;102503.66;4976834;28;46593;-87
2022/03/24 08:50:49;;;;;;;;;37.67;30.67;;;;;18.34;30.07;102506.00;4976146;28;45461;-84
2022/03/24 08:53:16;;;;;;;;;37.67;34.67;;;;;18.04;30.08;102429.19;4961574;28;45522;-86
2022/03/24 08:55:41;;;;;;;;;35.00;30.00;;;;;18.44;29.64;102468.59;4940916;28;45497;-90
2022/03/24 08:58:08;;;;;;;;;38.00;32.00;;;;;18.53;28.94;102433.06;4972193;28;47087;-90
2022/03/24 09:00:34;;;;;;;;;39.33;31.67;;;;;19.09;28.91;102487.00;4955801;28;45430;-89
2022/03/24 09:03:00;;;;;;;;;40.00;35.67;;;;;19.08;28.88;102445.59;4968745;28;45395;-90
2022/03/24 09:05:26;;;;;;;;;35.67;30.67;;;;;19.50;28.35;102459.59;4977344;28;45386;-89
2022/03/24 09:07:51;;;;;;;;;30.67;30.67;;;;;19.52;28.56;102428.81;4977159;28;46000;-89
2022/03/24 09:10:17;;;;;;;;;39.33;34.33;;;;;19.28;27.57;102343.63;4976970;28;45413;-89
2022/03/24 09:12:47;;;;;;;;;36.33;31.00;;;;;19.60;27.24;102371.59;4976741;28;45438;-90
2022/03/24 09:15:18;;;;;;;;;36.33;31.33;;;;;20.17;27.32;102427.94;4977369;28;45317;-90
2022/03/24 09:17:44;;;;;;;;;36.33;32.00;;;;;20.45;27.05;102452.47;4976666;28;45653;-90
2022/03/24 09:20:12;;;;;;;;;34.00;31.67;;;;;20.97;26.23;102504.59;5061313;28;45357;-90
2022/03/24 09:22:39;;;;;;;;;34.67;29.00;;;;;21.17;25.83;102498.00;5043421;28;45496;-90
2022/03/24 09:25:05;;;;;;;;;42.67;33.33;;;;;20.86;25.89;102411.25;4977088;28;45230;-90
2022/03/24 09:27:31;;;;;;;;;35.00;32.67;;;;;21.48;25.28;102453.59;4976740;28;45425;-90
2022/03/24 09:29:56;;;;;;;;;37.33;33.33;;;;;21.90;24.33;102443.69;4976697;28;45362;-90
2022/03/24 09:32:22;;;;;;;;;42.33;33.67;;;;;22.54;24.10;102442.19;5061147;28;45595;-90
2022/03/24 09:34:47;;;;;;;;;40.67;32.33;;;;;23.24;22.96;102467.41;5044406;28;45298;-90
2022/03/24 09:37:17;;;;;;;;;42.67;32.00;;;;;23.99;23.11;102487.41;4976756;28;45394;-90
2022/03/24 09:39:43;;;;;;;;;35.33;30.67;;;;;24.63;22.38;102459.09;5060598;28;45409;-90
2022/03/24 09:42:08;;;;;;;;;38.33;33.33;;;;;25.24;21.11;102413.44;5060703;28;45389;-90
2022/03/24 09:44:35;;;;;;;;;38.00;32.67;;;;;26.50;20.11;102481.53;4976838;28;45458;-89
2022/03/24 09:47:00;;;;;;;;;37.67;32.00;;;;;26.98;19.46;102433.75;4976710;28;46381;-89
2022/03/24 09:49:27;;;;;;;;;37.67;31.67;;;;;28.05;18.93;102451.63;4976490;28;45381;-89
2022/03/24 09:51:52;;;;;;;;;40.67;32.33;;;;;28.58;17.81;102412.00;4995375;28;45403;-90
2022/03/24 09:54:18;;;;;;;;;33.33;30.33;;;;;29.22;17.08;102370.19;4976605;28;45636;-89
2022/03/24 09:56:43;;;;;;;;;37.67;31.67;;;;;30.82;16.11;102464.19;4975580;28;46100;-89
2022/03/24 09:59:11;;;;;;;;;36.33;32.00;;;;;31.79;15.16;102453.16;4976548;28;45444;-89
2022/03/24 10:01:39;;;;;;;;;33.67;30.33;;;;;32.99;15.01;102451.88;4975000;28;45408;-85
2022/03/24 10:04:06;;;;;;;;;34.00;31.33;;;;;34.11;14.39;102463.06;4957293;28;45395;-85
2022/03/24 10:06:32;;;;;;;;;34.67;30.00;;;;;34.89;13.71;102410.22;4971496;28;48464;-86
2022/03/24 10:08:58;;;;;;;;;36.67;33.00;;;;;36.21;12.58;102453.09;4956508;28;45448;-85
2022/03/24 10:11:27;;;;;;;;;40.67;33.67;;;;;37.02;12.34;102422.25;4955643;28;45429;-86
2022/03/24 10:13:55;;;;;;;;;37.33;33.00;;;;;38.12;11.44;102438.16;4939638;28;45600;-86
2022/03/24 10:16:50;;;;;;;;;33.67;31.00;;;;;39.06;11.10;102455.88;4955277;28;47355;-86
2022/03/24 10:19:17;;;;;;;;;34.33;31.67;;;;;39.46;10.68;102397.22;4964501;28;45328;-86
2022/03/24 10:21:48;;;;;;;;;42.33;33.00;;;;;40.20;10.36;102411.69;4956768;28;45403;-86
2022/03/24 10:24:22;;;;;;;;;37.00;31.00;;;;;40.92;9.58;102443.03;4957032;28;45170;-86
2022/03/24 10:27:02;;;;;;;;;37.67;32.33;;;;;41.27;9.79;102415.38;4956508;28;45775;-86
2022/03/24 10:29:28;;;;;;;;;33.33;32.00;;;;;41.72;9.55;102403.84;4956582;28;45422;-86
2022/03/24 10:31:56;;;;;;;;;35.33;31.00;;;;;42.21;9.35;102403.84;4956202;28;45272;-87
2022/03/24 10:34:32;;;;;;;;;35.00;29.33;;;;;42.90;9.00;102448.31;4963279;28;45330;-85
2022/03/24 10:37:02;;;;;;;;;36.00;30.33;;;;;43.35;8.60;102451.34;5015691;28;45718;-86
2022/03/24 10:39:27;;;;;;;;;33.67;31.00;;;;;43.21;8.85;102407.78;5001293;28;45842;-88
2022/03/24 10:41:53;;;;;;;;;37.00;29.67;;;;;43.48;8.29;102418.47;4999401;28;45342;-87
2022/03/24 10:44:19;;;;;;;;;36.00;31.00;;;;;43.49;8.25;102412.63;4995601;28;45521;-88
2022/03/24 10:46:44;;;;;;;;;42.00;32.33;;;;;43.23;7.98;102373.88;4995352;28;45506;-88
2022/03/24 10:49:24;;;;;;;;;34.33;30.67;;;;;43.20;8.35;102384.50;4989052;28;45421;-87
2022/03/24 10:51:51;;;;;;;;;34.67;30.67;;;;;43.15;8.30;102443.25;4974787;28;45567;-88
2022/03/24 10:54:16;;;;;;;;;33.33;30.67;;;;;42.85;8.48;102446.22;4975450;28;45583;-88
2022/03/24 10:57:03;;;;;;;;;33.33;29.67;;;;;42.47;8.90;102453.06;4974416;28;48258;-88
2022/03/24 10:59:35;;;;;;;;;30.33;29.00;;;;;41.66;9.27;102402.00;4975447;28;45375;-87
2022/03/24 11:02:01;;;;;;;;;31.33;29.00;;;;;41.22;9.17;102383.59;4975353;28;45386;-86
2022/03/24 11:04:26;;;;;;;;;35.00;30.00;;;;;40.83;9.64;102389.31;4975861;28;45345;-86
2022/03/24 11:06:52;;;;;;;;;30.00;25.67;;;;;40.66;9.41;102416.13;4975340;28;46458;-86